Time;durP1;ratioP1;P1;durP2;ratioP2;P2;SDS_P1;SDS_P2;PMS_P1;PMS_P2;Temp;Humidity;BMP_temperature;BMP_pressure;BME280_temperature;BME280_humidity;BME280_pressure;Samples;Min_cycle;Max_cycle;Signal;HPM_P1;HPM_P2
2023/04/25 00:43:41;;;;;;;22.00;15.93;;;;;;;;;;7320065;19;20374;-78
2023/04/25 00:46:06;;;;;;;21.70;14.93;;;;;;;;;;7352676;19;20095;-79
2023/04/25 00:48:32;;;;;;;20.70;16.67;;;;;;;;;;7369009;19;20010;-80
2023/04/25 00:50:58;;;;;;;23.90;17.75;;;;;;;;;;7360114;19;20067;-80
2023/04/25 00:53:24;;;;;;;20.80;16.00;;;;;;;;;;7371838;19;20409;-80
2023/04/25 00:55:50;;;;;;;21.92;16.85;;;;;;;;;;7373429;19;20031;-82
2023/04/25 00:58:16;;;;;;;22.75;17.70;;;;;;;;;;7362143;19;20014;-80
2023/04/25 01:00:41;;;;;;;23.05;17.50;;;;;;;;;;7369157;19;20390;-82
2023/04/25 01:03:06;;;;;;;22.58;17.58;;;;;;;;;;7351863;19;20475;-79
2023/04/25 01:05:32;;;;;;;25.30;17.27;;;;;;;;;;7294047;19;19999;-79
2023/04/25 01:07:58;;;;;;;22.00;16.95;;;;;;;;;;7287500;19;20320;-78
2023/04/25 01:10:23;;;;;;;22.50;17.85;;;;;;;;;;7289444;19;20394;-80
2023/04/25 01:12:48;;;;;;;20.45;16.58;;;;;;;;;;7296901;19;20134;-79
2023/04/25 01:15:13;;;;;;;23.00;17.60;;;;;;;;;;7289917;19;20098;-78
2023/04/25 01:17:41;;;;;;;26.20;18.27;;;;;;;;;;7291797;19;20143;-81
2023/04/25 01:20:07;;;;;;;24.15;18.85;;;;;;;;;;7291463;19;20688;-79
2023/04/25 01:22:33;;;;;;;23.45;17.50;;;;;;;;;;7289710;19;20359;-78
2023/04/25 01:24:58;;;;;;;24.65;18.73;;;;;;;;;;7286521;19;20182;-79
2023/04/25 01:27:24;;;;;;;27.25;19.60;;;;;;;;;;7284536;19;20013;-79
2023/04/25 01:29:49;;;;;;;27.95;19.00;;;;;;;;;;7279439;19;20002;-79
2023/04/25 01:32:15;;;;;;;26.08;18.25;;;;;;;;;;7285744;19;19999;-79
2023/04/25 01:34:40;;;;;;;28.08;19.88;;;;;;;;;;7286185;19;20432;-78
2023/04/25 01:37:05;;;;;;;24.55;18.33;;;;;;;;;;7280792;19;20714;-78
2023/04/25 01:39:30;;;;;;;22.38;17.35;;;;;;;;;;7286630;19;19999;-79
2023/04/25 01:41:56;;;;;;;20.92;16.25;;;;;;;;;;7291046;19;20282;-79
2023/04/25 01:44:21;;;;;;;24.73;17.73;;;;;;;;;;7294202;19;20015;-78
2023/04/25 01:46:46;;;;;;;20.57;15.33;;;;;;;;;;7292007;19;20124;-78
2023/04/25 01:49:11;;;;;;;19.70;14.83;;;;;;;;;;7293466;19;20240;-78
2023/04/25 01:51:37;;;;;;;19.00;14.77;;;;;;;;;;7289914;19;21081;-80
2023/04/25 01:54:02;;;;;;;20.80;15.68;;;;;;;;;;7295250;19;20231;-78
2023/04/25 01:56:31;;;;;;;21.40;16.02;;;;;;;;;;7291021;19;20361;-81
2023/04/25 01:58:57;;;;;;;23.55;17.25;;;;;;;;;;7292815;19;20310;-79
2023/04/25 02:01:22;;;;;;;22.25;16.80;;;;;;;;;;7296149;19;20047;-78
2023/04/25 02:03:47;;;;;;;23.40;17.73;;;;;;;;;;7323986;19;20029;-80
2023/04/25 02:06:12;;;;;;;29.05;21.35;;;;;;;;;;7367292;19;20025;-80
2023/04/25 02:08:38;;;;;;;28.13;21.13;;;;;;;;;;7369701;19;20244;-81
2023/04/25 02:11:03;;;;;;;28.40;21.75;;;;;;;;;;7373512;19;20258;-81
2023/04/25 02:13:28;;;;;;;27.77;20.08;;;;;;;;;;7364022;19;20451;-81
2023/04/25 02:15:53;;;;;;;27.92;21.23;;;;;;;;;;7370634;19;20507;-80
2023/04/25 02:18:19;;;;;;;27.80;20.73;;;;;;;;;;7363977;19;20010;-81
2023/04/25 02:20:45;;;;;;;28.55;20.85;;;;;;;;;;7371916;19;20728;-79
2023/04/25 02:23:10;;;;;;;26.83;20.83;;;;;;;;;;7370592;19;20014;-81
2023/04/25 02:25:35;;;;;;;29.85;22.20;;;;;;;;;;7367103;19;20007;-78
2023/04/25 02:28:00;;;;;;;27.83;21.63;;;;;;;;;;7365993;19;19999;-79
2023/04/25 02:30:26;;;;;;;28.33;21.57;;;;;;;;;;7366220;19;20235;-79
2023/04/25 02:32:51;;;;;;;27.85;21.17;;;;;;;;;;7366052;19;20248;-80
2023/04/25 02:35:16;;;;;;;31.65;23.98;;;;;;;;;;7365075;19;20413;-79
2023/04/25 02:37:41;;;;;;;27.77;21.83;;;;;;;;;;7367839;19;20030;-80
2023/04/25 02:40:07;;;;;;;30.50;22.65;;;;;;;;;;7366042;19;20255;-78
2023/04/25 02:42:32;;;;;;;29.13;22.60;;;;;;;;;;7367529;19;20715;-80
2023/04/25 02:44:57;;;;;;;31.90;22.50;;;;;;;;;;7364183;19;20024;-78
2023/04/25 02:47:23;;;;;;;31.77;22.77;;;;;;;;;;7360386;19;20404;-79
2023/04/25 02:49:48;;;;;;;29.95;23.13;;;;;;;;;;7364906;19;20078;-79
2023/04/25 02:52:13;;;;;;;29.52;22.30;;;;;;;;;;7367632;19;20420;-77
2023/04/25 02:54:40;;;;;;;28.38;22.40;;;;;;;;;;7368623;19;20090;-78
2023/04/25 02:57:05;;;;;;;34.00;23.27;;;;;;;;;;7367286;19;20007;-79
2023/04/25 02:59:30;;;;;;;30.97;23.13;;;;;;;;;;7366405;19;20003;-80
2023/04/25 03:01:55;;;;;;;29.75;22.40;;;;;;;;;;7366120;19;20300;-80
2023/04/25 03:04:20;;;;;;;28.17;22.23;;;;;;;;;;7364968;19;20327;-80
2023/04/25 03:06:46;;;;;;;33.50;23.50;;;;;;;;;;7366026;19;20274;-78
2023/04/25 03:09:11;;;;;;;31.55;22.77;;;;;;;;;;7366645;19;20459;-80
2023/04/25 03:11:37;;;;;;;30.65;22.95;;;;;;;;;;7361956;19;20050;-80
2023/04/25 03:14:02;;;;;;;31.35;22.88;;;;;;;;;;7366982;19;20019;-79
2023/04/25 03:16:27;;;;;;;29.35;22.55;;;;;;;;;;7363958;19;20109;-79
2023/04/25 03:18:52;;;;;;;32.13;22.07;;;;;;;;;;7364665;19;20002;-81
2023/04/25 03:21:17;;;;;;;28.93;22.90;;;;;;;;;;7364130;19;20592;-79
2023/04/25 03:23:42;;;;;;;29.47;21.87;;;;;;;;;;7365252;19;20282;-82
2023/04/25 03:26:08;;;;;;;26.38;18.75;;;;;;;;;;7365107;19;20268;-80
2023/04/25 03:28:33;;;;;;;28.47;19.27;;;;;;;;;;7363067;19;20747;-79
2023/04/25 03:30:58;;;;;;;26.83;18.08;;;;;;;;;;7367394;19;20253;-80
2023/04/25 03:33:23;;;;;;;28.15;17.92;;;;;;;;;;7359628;19;20001;-81
2023/04/25 03:35:49;;;;;;;25.70;18.55;;;;;;;;;;7366616;19;20002;-79
2023/04/25 03:38:15;;;;;;;29.48;17.88;;;;;;;;;;7364028;19;20026;-80
2023/04/25 03:40:40;;;;;;;27.08;19.00;;;;;;;;;;7358721;19;20776;-80
2023/04/25 03:43:05;;;;;;;36.25;18.70;;;;;;;;;;7350582;19;20030;-78
2023/04/25 03:45:30;;;;;;;26.25;17.25;;;;;;;;;;7353413;19;20026;-80
2023/04/25 03:47:55;;;;;;;23.90;17.30;;;;;;;;;;7358564;19;20018;-81
2023/04/25 03:50:21;;;;;;;27.83;17.50;;;;;;;;;;7363297;19;20005;-79
2023/04/25 03:52:46;;;;;;;28.47;18.23;;;;;;;;;;7360308;19;20223;-79
2023/04/25 03:55:11;;;;;;;26.02;17.30;;;;;;;;;;7365406;19;20252;-80
2023/04/25 03:57:36;;;;;;;29.45;17.55;;;;;;;;;;7359508;19;21092;-78
2023/04/25 04:00:03;;;;;;;29.00;16.63;;;;;;;;;;7363781;19;20003;-80
2023/04/25 04:02:28;;;;;;;26.17;18.20;;;;;;;;;;7362685;19;20255;-79
2023/04/25 04:04:53;;;;;;;26.60;17.00;;;;;;;;;;7361228;19;20007;-80
2023/04/25 04:07:18;;;;;;;24.38;17.30;;;;;;;;;;7363771;19;20304;-77
2023/04/25 04:09:44;;;;;;;28.67;18.83;;;;;;;;;;7363888;19;20526;-79
2023/04/25 04:12:09;;;;;;;25.55;16.58;;;;;;;;;;7363913;19;20006;-79
2023/04/25 04:14:34;;;;;;;22.75;15.65;;;;;;;;;;7360419;19;20023;-80
2023/04/25 04:16:59;;;;;;;24.58;16.30;;;;;;;;;;7360838;19;19999;-80
2023/04/25 04:19:25;;;;;;;25.20;15.40;;;;;;;;;;7356185;19;20078;-78
2023/04/25 04:21:50;;;;;;;22.63;15.55;;;;;;;;;;7362362;19;20581;-80
2023/04/25 04:24:16;;;;;;;25.35;14.90;;;;;;;;;;7360575;19;20002;-79
2023/04/25 04:26:44;;;;;;;23.13;13.57;;;;;;;;;;7357613;19;20889;-81
2023/04/25 04:29:10;;;;;;;23.23;13.18;;;;;;;;;;7357545;19;20082;-79
2023/04/25 04:31:35;;;;;;;27.67;13.88;;;;;;;;;;7357850;19;20092;-80
2023/04/25 04:34:01;;;;;;;23.80;14.10;;;;;;;;;;7359261;19;20107;-79
2023/04/25 04:36:26;;;;;;;27.02;14.32;;;;;;;;;;7356573;19;20036;-79
2023/04/25 04:38:52;;;;;;;22.48;13.60;;;;;;;;;;7354864;19;20039;-79
2023/04/25 04:41:19;;;;;;;21.02;13.65;;;;;;;;;;7360210;19;20002;-78
2023/04/25 04:43:44;;;;;;;22.80;14.02;;;;;;;;;;7351557;19;20006;-80
2023/04/25 04:46:10;;;;;;;23.80;14.68;;;;;;;;;;7355092;19;19999;-78
2023/04/25 04:48:35;;;;;;;25.40;14.32;;;;;;;;;;7359679;19;20056;-80
2023/04/25 04:51:00;;;;;;;25.60;13.82;;;;;;;;;;7362718;19;20388;-81
2023/04/25 04:53:25;;;;;;;26.85;14.40;;;;;;;;;;7364507;19;19987;-79
2023/04/25 04:55:51;;;;;;;27.00;14.50;;;;;;;;;;7364248;19;20005;-81
2023/04/25 04:58:16;;;;;;;24.42;14.13;;;;;;;;;;7366240;19;20006;-79
2023/04/25 05:00:41;;;;;;;23.77;13.52;;;;;;;;;;7367286;19;20007;-80
2023/04/25 05:03:06;;;;;;;22.67;12.55;;;;;;;;;;7371501;19;20232;-80
2023/04/25 05:05:31;;;;;;;26.33;12.80;;;;;;;;;;7369244;19;20035;-79
2023/04/25 05:07:56;;;;;;;21.83;12.32;;;;;;;;;;7372466;19;20343;-80
2023/04/25 05:10:22;;;;;;;22.08;12.75;;;;;;;;;;7374542;19;20311;-79
2023/04/25 05:12:47;;;;;;;23.57;13.57;;;;;;;;;;7359551;19;20307;-80
2023/04/25 05:15:12;;;;;;;21.65;13.07;;;;;;;;;;7361368;19;20244;-79
2023/04/25 05:17:38;;;;;;;23.90;12.70;;;;;;;;;;7368894;19;20074;-81
2023/04/25 05:20:05;;;;;;;24.27;13.05;;;;;;;;;;7373530;19;20063;-80
2023/04/25 05:22:30;;;;;;;24.92;12.95;;;;;;;;;;7371871;19;20002;-79
2023/04/25 05:24:56;;;;;;;23.15;12.45;;;;;;;;;;7374847;19;20006;-80
2023/04/25 05:27:21;;;;;;;23.08;13.15;;;;;;;;;;7368903;19;20513;-80
2023/04/25 05:29:46;;;;;;;26.60;13.95;;;;;;;;;;7372909;19;20287;-80
2023/04/25 05:32:11;;;;;;;23.63;13.18;;;;;;;;;;7374256;19;20043;-80
2023/04/25 05:34:36;;;;;;;22.73;12.35;;;;;;;;;;7368231;19;19994;-80
2023/04/25 05:37:02;;;;;;;26.48;13.02;;;;;;;;;;7374877;19;20394;-80
2023/04/25 05:39:27;;;;;;;26.77;14.43;;;;;;;;;;7372291;19;20459;-78
2023/04/25 05:41:52;;;;;;;28.30;13.90;;;;;;;;;;7367910;19;20082;-77
2023/04/25 05:44:17;;;;;;;21.80;13.07;;;;;;;;;;7366430;19;20262;-81
2023/04/25 05:46:43;;;;;;;29.08;14.65;;;;;;;;;;7368577;19;20447;-81
2023/04/25 05:49:08;;;;;;;22.63;12.98;;;;;;;;;;7369723;19;20743;-81
2023/04/25 05:51:33;;;;;;;27.07;14.13;;;;;;;;;;7374578;19;20002;-78
2023/04/25 05:53:58;;;;;;;22.65;13.07;;;;;;;;;;7375490;19;20685;-81
2023/04/25 05:56:23;;;;;;;22.75;11.95;;;;;;;;;;7375130;19;20234;-79
2023/04/25 05:58:48;;;;;;;21.27;10.03;;;;;;;;;;7369092;19;20408;-80
2023/04/25 06:01:14;;;;;;;20.33;10.52;;;;;;;;;;7373902;19;20244;-80
2023/04/25 06:03:42;;;;;;;17.27;9.02;;;;;;;;;;7361576;19;20345;-80
2023/04/25 06:06:07;;;;;;;19.95;9.88;;;;;;;;;;7368142;19;20019;-80
2023/04/25 06:08:32;;;;;;;16.50;8.27;;;;;;;;;;7370925;19;20476;-79
2023/04/25 06:10:58;;;;;;;15.90;8.07;;;;;;;;;;7372946;19;20263;-80
2023/04/25 06:13:23;;;;;;;14.45;8.10;;;;;;;;;;7369651;19;20006;-79
2023/04/25 06:15:48;;;;;;;15.90;7.47;;;;;;;;;;7366509;19;20249;-80
2023/04/25 06:18:13;;;;;;;13.85;7.20;;;;;;;;;;7370285;19;20251;-81
2023/04/25 06:20:38;;;;;;;15.02;7.45;;;;;;;;;;7369110;19;20327;-79
2023/04/25 06:23:03;;;;;;;14.73;6.88;;;;;;;;;;7372809;19;20003;-79
2023/04/25 06:25:29;;;;;;;12.70;6.93;;;;;;;;;;7371558;19;20309;-79
2023/04/25 06:27:54;;;;;;;16.15;7.50;;;;;;;;;;7349600;19;20271;-83
2023/04/25 06:30:22;;;;;;;15.00;6.80;;;;;;;;;;7369204;19;20227;-80
2023/04/25 06:32:47;;;;;;;12.45;7.03;;;;;;;;;;7365906;19;20003;-81
2023/04/25 06:35:12;;;;;;;17.33;7.10;;;;;;;;;;7371658;19;19999;-80
2023/04/25 06:37:38;;;;;;;14.07;7.13;;;;;;;;;;7369438;19;19994;-81
2023/04/25 06:40:03;;;;;;;16.85;7.30;;;;;;;;;;7369605;19;20095;-80
2023/04/25 06:42:28;;;;;;;16.48;7.35;;;;;;;;;;7365980;19;20373;-82
2023/04/25 06:44:53;;;;;;;14.35;6.80;;;;;;;;;;7369311;19;20117;-81
2023/04/25 06:47:19;;;;;;;14.97;8.53;;;;;;;;;;7369737;19;20015;-83
2023/04/25 06:49:44;;;;;;;17.70;7.63;;;;;;;;;;7365262;19;20228;-82
2023/04/25 06:52:10;;;;;;;17.92;7.63;;;;;;;;;;7368849;19;20340;-81
2023/04/25 06:54:35;;;;;;;14.30;6.75;;;;;;;;;;7370444;19;20462;-81
2023/04/25 06:57:01;;;;;;;16.98;7.78;;;;;;;;;;7365515;19;20014;-80
2023/04/25 06:59:26;;;;;;;13.05;6.55;;;;;;;;;;7367853;19;20235;-81
2023/04/25 07:01:51;;;;;;;13.43;6.67;;;;;;;;;;7369404;19;20006;-79
2023/04/25 07:04:16;;;;;;;13.57;6.78;;;;;;;;;;7367906;19;20303;-81
2023/04/25 07:06:42;;;;;;;15.37;7.27;;;;;;;;;;7366307;19;19994;-81
2023/04/25 07:09:08;;;;;;;13.18;7.18;;;;;;;;;;7366758;19;20239;-81
2023/04/25 07:11:34;;;;;;;16.83;6.43;;;;;;;;;;7364434;19;20006;-80
2023/04/25 07:13:59;;;;;;;14.35;6.65;;;;;;;;;;7368683;19;20122;-82
2023/04/25 07:16:24;;;;;;;16.15;6.85;;;;;;;;;;7370255;19;20014;-83
2023/04/25 07:18:50;;;;;;;16.58;6.55;;;;;;;;;;7366356;19;20466;-79
2023/04/25 07:21:15;;;;;;;15.02;6.03;;;;;;;;;;7371527;19;19987;-81
2023/04/25 07:23:40;;;;;;;12.80;6.57;;;;;;;;;;7367580;19;19998;-81
2023/04/25 07:26:05;;;;;;;14.25;7.18;;;;;;;;;;7368864;19;20266;-82
2023/04/25 07:28:31;;;;;;;14.23;6.47;;;;;;;;;;7368206;19;20567;-81
2023/04/25 07:30:57;;;;;;;14.98;5.65;;;;;;;;;;7368570;19;20002;-81
2023/04/25 07:33:23;;;;;;;10.00;5.38;;;;;;;;;;7365888;19;20515;-82
2023/04/25 07:35:48;;;;;;;12.90;5.60;;;;;;;;;;7367075;19;20039;-83
2023/04/25 07:38:13;;;;;;;13.85;5.88;;;;;;;;;;7371001;19;20012;-81
2023/04/25 07:40:38;;;;;;;11.00;5.22;;;;;;;;;;7367116;19;20784;-81
2023/04/25 07:43:03;;;;;;;14.40;5.23;;;;;;;;;;7366768;19;20026;-82
2023/04/25 07:45:29;;;;;;;11.70;5.03;;;;;;;;;;7368715;19;20227;-81
2023/04/25 07:47:54;;;;;;;14.27;5.55;;;;;;;;;;7363479;19;20359;-82
2023/04/25 07:50:19;;;;;;;15.00;5.38;;;;;;;;;;7367630;19;19990;-81
2023/04/25 07:52:44;;;;;;;14.57;6.15;;;;;;;;;;7368548;19;20227;-81
2023/04/25 07:55:10;;;;;;;12.82;5.03;;;;;;;;;;7368099;19;20385;-81
2023/04/25 07:57:35;;;;;;;14.30;5.90;;;;;;;;;;7367016;19;20323;-81
2023/04/25 08:00:00;;;;;;;14.97;5.30;;;;;;;;;;7368525;19;20015;-83
2023/04/25 08:02:28;;;;;;;16.47;6.17;;;;;;;;;;7369167;19;20656;-81
2023/04/25 08:04:53;;;;;;;17.35;6.38;;;;;;;;;;7363523;19;20250;-80
2023/04/25 08:07:18;;;;;;;17.40;5.90;;;;;;;;;;7367078;19;19999;-81
2023/04/25 08:09:43;;;;;;;16.58;6.05;;;;;;;;;;7367493;19;20319;-80
2023/04/25 08:12:08;;;;;;;19.63;6.32;;;;;;;;;;7367660;19;20263;-81
2023/04/25 08:14:36;;;;;;;16.65;6.53;;;;;;;;;;7368907;19;20313;-82
2023/04/25 08:17:03;;;;;;;17.25;6.70;;;;;;;;;;7368894;19;20070;-82
2023/04/25 08:19:28;;;;;;;16.48;7.05;;;;;;;;;;7366321;19;20060;-81
2023/04/25 08:21:55;;;;;;;14.95;7.28;;;;;;;;;;7364383;19;20110;-82
2023/04/25 08:24:20;;;;;;;21.65;7.68;;;;;;;;;;7369354;19;20419;-81
2023/04/25 08:26:45;;;;;;;14.07;6.80;;;;;;;;;;7364817;19;20003;-81
2023/04/25 08:29:10;;;;;;;13.83;5.63;;;;;;;;;;7368907;19;20285;-82
2023/04/25 08:31:36;;;;;;;15.67;5.53;;;;;;;;;;7369540;19;20224;-81
2023/04/25 08:34:01;;;;;;;13.18;5.43;;;;;;;;;;7366418;19;20312;-81
2023/04/25 08:36:27;;;;;;;12.88;4.72;;;;;;;;;;7375559;19;20002;-81
2023/04/25 08:38:53;;;;;;;12.27;4.80;;;;;;;;;;7374808;19;20492;-81
2023/04/25 08:41:20;;;;;;;13.60;4.90;;;;;;;;;;7377829;19;20115;-81
2023/04/25 08:43:48;;;;;;;18.17;5.18;;;;;;;;;;7354073;19;20301;-82
2023/04/25 08:46:16;;;;;;;13.13;5.22;;;;;;;;;;7377176;19;20088;-81
2023/04/25 08:48:42;;;;;;;14.70;5.07;;;;;;;;;;7372030;19;20074;-82
2023/04/25 08:51:08;;;;;;;13.85;4.70;;;;;;;;;;7377087;19;20129;-82
2023/04/25 08:53:33;;;;;;;12.32;5.13;;;;;;;;;;7376599;19;19999;-81
2023/04/25 08:56:01;;;;;;;14.73;4.72;;;;;;;;;;7371923;19;20011;-79
2023/04/25 08:58:27;;;;;;;16.58;4.88;;;;;;;;;;7375806;19;20010;-82
2023/04/25 09:00:52;;;;;;;19.50;5.10;;;;;;;;;;7373352;19;20706;-82
2023/04/25 09:03:18;;;;;;;13.15;4.40;;;;;;;;;;7373998;19;20388;-82
2023/04/25 09:05:43;;;;;;;16.20;4.85;;;;;;;;;;7373211;19;20438;-81
2023/04/25 09:08:08;;;;;;;17.42;5.68;;;;;;;;;;7376917;19;20002;-81
2023/04/25 09:10:34;;;;;;;21.25;5.82;;;;;;;;;;7377555;19;20378;-82
2023/04/25 09:13:03;;;;;;;18.05;5.93;;;;;;;;;;7367255;19;20305;-81
2023/04/25 09:15:28;;;;;;;16.63;5.25;;;;;;;;;;7375774;19;20104;-81
2023/04/25 09:17:57;;;;;;;18.30;5.50;;;;;;;;;;7371341;19;20735;-80
2023/04/25 09:20:22;;;;;;;12.15;4.43;;;;;;;;;;7376633;19;20030;-82
2023/04/25 09:22:47;;;;;;;12.63;4.80;;;;;;;;;;7373287;19;20304;-81
2023/04/25 09:25:14;;;;;;;14.37;4.80;;;;;;;;;;7375649;19;19991;-83
2023/04/25 09:27:50;;;;;;;22.17;5.68;;;;;;;;;;7371571;19;20293;-81
2023/04/25 09:30:15;;;;;;;15.07;4.40;;;;;;;;;;7374152;19;20003;-81
2023/04/25 09:32:45;;;;;;;19.85;4.68;;;;;;;;;;7373578;19;20003;-82
2023/04/25 09:35:11;;;;;;;16.88;5.18;;;;;;;;;;7373631;19;20487;-80
2023/04/25 09:37:36;;;;;;;14.57;5.38;;;;;;;;;;7375231;19;20017;-82
2023/04/25 09:40:05;;;;;;;16.05;4.65;;;;;;;;;;7372236;19;20002;-81
2023/04/25 09:42:31;;;;;;;14.05;4.40;;;;;;;;;;7375143;19;20006;-82
2023/04/25 09:44:57;;;;;;;16.35;4.45;;;;;;;;;;7373046;19;19995;-82
2023/04/25 09:47:26;;;;;;;13.35;4.55;;;;;;;;;;7366691;19;20018;-81
2023/04/25 09:49:52;;;;;;;17.83;4.50;;;;;;;;;;7370698;19;20038;-81
2023/04/25 09:52:20;;;;;;;13.77;4.50;;;;;;;;;;7373982;19;20079;-82
2023/04/25 09:54:46;;;;;;;14.65;3.97;;;;;;;;;;7373489;19;20010;-79
2023/04/25 09:57:13;;;;;;;15.48;4.40;;;;;;;;;;7372264;19;20033;-81
2023/04/25 09:59:42;;;;;;;13.32;4.53;;;;;;;;;;7374922;19;19995;-81
2023/04/25 10:02:08;;;;;;;17.58;4.00;;;;;;;;;;7374066;19;20148;-82
2023/04/25 10:04:34;;;;;;;14.63;4.22;;;;;;;;;;7368081;19;20059;-81
2023/04/25 10:07:00;;;;;;;13.98;4.65;;;;;;;;;;7370399;19;20022;-81
2023/04/25 10:09:25;;;;;;;17.10;4.90;;;;;;;;;;7374522;19;20428;-81
2023/04/25 10:11:51;;;;;;;15.18;4.88;;;;;;;;;;7374917;19;20075;-82
2023/04/25 10:14:16;;;;;;;13.68;3.95;;;;;;;;;;7370909;19;20021;-81
2023/04/25 10:16:42;;;;;;;12.20;3.40;;;;;;;;;;7372491;19;20040;-81
2023/04/25 10:19:07;;;;;;;15.50;3.70;;;;;;;;;;7368192;19;20760;-81
2023/04/25 10:21:33;;;;;;;14.13;3.70;;;;;;;;;;7374844;19;20449;-80
2023/04/25 10:23:59;;;;;;;14.25;4.28;;;;;;;;;;7375411;19;20311;-81
2023/04/25 10:26:25;;;;;;;10.27;3.50;;;;;;;;;;7372147;19;20022;-80
2023/04/25 10:29:00;;;;;;;15.35;4.38;;;;;;;;;;7372818;19;19998;-79
2023/04/25 10:31:26;;;;;;;11.35;3.90;;;;;;;;;;7374024;19;20320;-79
2023/04/25 10:33:51;;;;;;;12.63;3.72;;;;;;;;;;7369880;19;19999;-80
2023/04/25 10:36:23;;;;;;;12.80;3.33;;;;;;;;;;7373233;19;19994;-80
2023/04/25 10:38:50;;;;;;;15.38;4.53;;;;;;;;;;7373469;19;20339;-80
2023/04/25 10:41:18;;;;;;;10.20;3.22;;;;;;;;;;7373672;19;19999;-80
2023/04/25 10:43:44;;;;;;;11.82;3.72;;;;;;;;;;7370907;19;20367;-80
2023/04/25 10:46:22;;;;;;;12.73;3.50;;;;;;;;;;7370689;19;20003;-81
2023/04/25 10:48:48;;;;;;;10.13;2.95;;;;;;;;;;7371457;19;20023;-78
2023/04/25 10:51:34;;;;;;;10.60;3.58;;;;;;;;;;7371650;19;19999;-81
2023/04/25 10:54:03;;;;;;;12.65;3.65;;;;;;;;;;7369968;19;20015;-80
2023/04/25 10:56:48;;;;;;;12.13;3.55;;;;;;;;;;7368719;19;20063;-80
2023/04/25 10:59:14;;;;;;;13.38;3.78;;;;;;;;;;7368609;19;20003;-79
2023/04/25 11:01:40;;;;;;;13.88;3.38;;;;;;;;;;7370439;19;20566;-80
2023/04/25 11:04:06;;;;;;;10.50;2.90;;;;;;;;;;7364122;19;20440;-80
2023/04/25 11:06:40;;;;;;;13.07;3.58;;;;;;;;;;7370472;19;20102;-80
2023/04/25 11:09:10;;;;;;;11.77;3.47;;;;;;;;;;7365769;19;20007;-80
2023/04/25 11:11:36;;;;;;;10.50;2.80;;;;;;;;;;7371515;19;20056;-81
2023/04/25 11:14:01;;;;;;;11.82;2.92;;;;;;;;;;7370792;19;20010;-81
2023/04/25 11:16:26;;;;;;;8.50;2.60;;;;;;;;;;7370934;19;20305;-79
2023/04/25 11:18:51;;;;;;;10.20;2.60;;;;;;;;;;7353223;19;20250;-78
2023/04/25 11:21:16;;;;;;;7.78;2.50;;;;;;;;;;7366256;19;20240;-78
2023/04/25 11:23:45;;;;;;;10.97;2.60;;;;;;;;;;7364183;19;20673;-80
2023/04/25 11:26:10;;;;;;;10.32;2.72;;;;;;;;;;7370361;19;20360;-80
2023/04/25 11:28:35;;;;;;;9.27;2.35;;;;;;;;;;7372515;19;20066;-80
2023/04/25 11:31:02;;;;;;;12.50;3.45;;;;;;;;;;7370319;19;20059;-80
2023/04/25 11:33:27;;;;;;;7.55;2.70;;;;;;;;;;7369057;19;19995;-80
2023/04/25 11:35:54;;;;;;;9.07;2.42;;;;;;;;;;7371038;19;19998;-80
2023/04/25 11:38:19;;;;;;;10.80;3.17;;;;;;;;;;7368661;19;19998;-80
2023/04/25 11:40:48;;;;;;;9.82;3.28;;;;;;;;;;7371221;19;20058;-79
2023/04/25 11:43:14;;;;;;;10.15;2.90;;;;;;;;;;7347920;19;20097;-82
2023/04/25 11:45:39;;;;;;;11.43;3.10;;;;;;;;;;7361294;19;20002;-80
2023/04/25 11:48:04;;;;;;;12.63;3.60;;;;;;;;;;7359765;19;20291;-80
2023/04/25 11:50:30;;;;;;;11.75;3.40;;;;;;;;;;7367351;19;20102;-80
2023/04/25 11:52:56;;;;;;;12.13;3.67;;;;;;;;;;7369268;19;20006;-80
2023/04/25 11:55:21;;;;;;;9.57;3.42;;;;;;;;;;7368866;19;20031;-80
2023/04/25 11:57:48;;;;;;;10.60;3.30;;;;;;;;;;7347087;19;20742;-79
2023/04/25 12:00:16;;;;;;;11.70;3.63;;;;;;;;;;7370283;19;19998;-80
2023/04/25 12:02:42;;;;;;;12.82;3.22;;;;;;;;;;7366652;19;20090;-80
2023/04/25 12:05:08;;;;;;;13.25;3.42;;;;;;;;;;7367051;19;20007;-79
2023/04/25 12:07:34;;;;;;;11.70;3.60;;;;;;;;;;7367546;19;19998;-79
2023/04/25 12:09:59;;;;;;;10.55;3.53;;;;;;;;;;7376758;19;20034;-78
2023/04/25 12:12:31;;;;;;;10.43;3.45;;;;;;;;;;7379324;19;20022;-80
2023/04/25 12:15:08;;;;;;;10.00;3.22;;;;;;;;;;7380068;19;20013;-77
2023/04/25 12:17:33;;;;;;;9.25;3.20;;;;;;;;;;7376276;19;20070;-79
2023/04/25 12:19:58;;;;;;;11.95;3.72;;;;;;;;;;7369407;19;20516;-81
2023/04/25 12:22:24;;;;;;;13.10;3.77;;;;;;;;;;7383826;19;20042;-82
2023/04/25 12:24:49;;;;;;;13.73;3.75;;;;;;;;;;7381902;19;20268;-81
2023/04/25 12:27:18;;;;;;;11.18;3.40;;;;;;;;;;7384029;19;19994;-81
2023/04/25 12:29:53;;;;;;;12.23;3.35;;;;;;;;;;7384813;19;20019;-81
2023/04/25 12:32:19;;;;;;;13.90;3.20;;;;;;;;;;7380214;19;20018;-81
2023/04/25 12:34:44;;;;;;;12.52;3.72;;;;;;;;;;7380119;19;20427;-80
2023/04/25 12:37:10;;;;;;;13.40;3.75;;;;;;;;;;7380475;19;20082;-81
2023/04/25 12:39:35;;;;;;;8.00;3.60;;;;;;;;;;7381048;19;20018;-80
2023/04/25 12:42:00;;;;;;;14.20;3.93;;;;;;;;;;7377961;19;20059;-79
2023/04/25 12:44:26;;;;;;;12.57;4.07;;;;;;;;;;7376666;19;20246;-81
2023/04/25 12:46:52;;;;;;;13.43;3.80;;;;;;;;;;7380330;19;20553;-79
2023/04/25 12:49:17;;;;;;;10.68;3.47;;;;;;;;;;7374104;19;20015;-80
2023/04/25 12:51:42;;;;;;;11.10;3.80;;;;;;;;;;7382121;19;20051;-80
2023/04/25 12:54:08;;;;;;;12.80;4.47;;;;;;;;;;7379549;19;19998;-80
2023/04/25 12:56:33;;;;;;;11.05;3.42;;;;;;;;;;7383370;19;20321;-79
2023/04/25 12:58:58;;;;;;;10.35;3.55;;;;;;;;;;7379563;19;20033;-80
2023/04/25 13:01:24;;;;;;;13.68;3.95;;;;;;;;;;7374762;19;20027;-82
2023/04/25 13:03:50;;;;;;;12.38;4.07;;;;;;;;;;7373494;19;20247;-84
2023/04/25 13:06:15;;;;;;;12.82;3.55;;;;;;;;;;7366986;19;20070;-81
2023/04/25 13:08:41;;;;;;;14.50;4.03;;;;;;;;;;7376191;19;20002;-79
2023/04/25 13:11:07;;;;;;;11.63;4.28;;;;;;;;;;7369839;19;20350;-79
2023/04/25 13:13:34;;;;;;;14.95;4.57;;;;;;;;;;7374838;19;20430;-81
2023/04/25 13:15:59;;;;;;;9.90;3.55;;;;;;;;;;7375965;19;20080;-81
2023/04/25 13:18:27;;;;;;;17.20;4.20;;;;;;;;;;7374592;19;20480;-81
2023/04/25 13:20:52;;;;;;;15.50;4.43;;;;;;;;;;7373962;19;19999;-81
2023/04/25 13:23:18;;;;;;;12.68;3.85;;;;;;;;;;7372563;19;20451;-80
2023/04/25 13:25:43;;;;;;;13.05;4.00;;;;;;;;;;7374192;19;20035;-80
2023/04/25 13:28:08;;;;;;;13.50;3.77;;;;;;;;;;7370158;19;20021;-80
2023/04/25 13:30:33;;;;;;;15.83;4.50;;;;;;;;;;7371635;19;20231;-79
2023/04/25 13:33:02;;;;;;;14.13;4.00;;;;;;;;;;7370700;19;20327;-82
2023/04/25 13:35:28;;;;;;;13.23;4.25;;;;;;;;;;7370350;19;20274;-78
2023/04/25 13:37:53;;;;;;;12.32;3.65;;;;;;;;;;7374158;19;19999;-80
2023/04/25 13:40:18;;;;;;;14.63;3.87;;;;;;;;;;7372308;19;20503;-80
2023/04/25 13:42:45;;;;;;;13.10;3.70;;;;;;;;;;7365657;19;20582;-80
2023/04/25 13:45:10;;;;;;;11.77;3.80;;;;;;;;;;7363153;19;20779;-79
2023/04/25 13:47:35;;;;;;;14.25;4.45;;;;;;;;;;7364024;19;20083;-79
2023/04/25 13:50:02;;;;;;;13.63;3.78;;;;;;;;;;7364322;19;20474;-81
2023/04/25 13:52:28;;;;;;;11.95;4.00;;;;;;;;;;7363644;19;20637;-81
2023/04/25 13:54:53;;;;;;;14.57;4.72;;;;;;;;;;7370208;19;20003;-80
2023/04/25 13:57:18;;;;;;;15.13;4.70;;;;;;;;;;7368195;19;20005;-80
2023/04/25 13:59:43;;;;;;;15.60;5.17;;;;;;;;;;7368424;19;20392;-79
2023/04/25 14:02:08;;;;;;;15.30;5.40;;;;;;;;;;7369429;19;20258;-81
2023/04/25 14:04:34;;;;;;;14.95;5.35;;;;;;;;;;7368994;19;20455;-80
2023/04/25 14:06:59;;;;;;;16.13;5.43;;;;;;;;;;7366013;19;20001;-81
2023/04/25 14:09:25;;;;;;;16.05;5.55;;;;;;;;;;7370160;19;20228;-81
2023/04/25 14:11:51;;;;;;;17.23;5.22;;;;;;;;;;7372380;19;20475;-81
2023/04/25 14:14:16;;;;;;;17.83;5.60;;;;;;;;;;7369477;19;20042;-80
2023/04/25 14:16:41;;;;;;;18.13;5.60;;;;;;;;;;7369778;19;20039;-81
2023/04/25 14:19:06;;;;;;;14.63;5.60;;;;;;;;;;7369572;19;20140;-79
2023/04/25 14:21:32;;;;;;;18.23;5.70;;;;;;;;;;7368707;19;20789;-80
2023/04/25 14:23:57;;;;;;;14.52;5.68;;;;;;;;;;7372822;19;20258;-80
2023/04/25 14:26:22;;;;;;;14.43;5.00;;;;;;;;;;7366867;19;20102;-81
2023/04/25 14:28:47;;;;;;;17.23;6.10;;;;;;;;;;7372973;19;20676;-80
2023/04/25 14:31:12;;;;;;;14.43;5.30;;;;;;;;;;7369059;19;20240;-80
2023/04/25 14:33:41;;;;;;;18.57;5.60;;;;;;;;;;7364759;19;20459;-81
2023/04/25 14:36:07;;;;;;;19.05;5.55;;;;;;;;;;7368058;19;20534;-80
2023/04/25 14:38:32;;;;;;;15.73;5.72;;;;;;;;;;7368747;19;20030;-81
2023/04/25 14:40:57;;;;;;;17.83;5.63;;;;;;;;;;7369361;19;20484;-80
2023/04/25 14:43:22;;;;;;;16.83;5.68;;;;;;;;;;7367537;19;20002;-81
2023/04/25 14:45:47;;;;;;;17.13;5.40;;;;;;;;;;7367116;19;19991;-80
2023/04/25 14:48:12;;;;;;;16.40;4.75;;;;;;;;;;7363099;19;20270;-81
2023/04/25 14:50:38;;;;;;;13.52;5.40;;;;;;;;;;7370810;19;20102;-80
2023/04/25 14:53:03;;;;;;;13.88;4.90;;;;;;;;;;7369041;19;20003;-79
2023/04/25 14:55:28;;;;;;;16.30;4.97;;;;;;;;;;7366212;19;20454;-81
2023/04/25 14:57:55;;;;;;;15.00;5.20;;;;;;;;;;7366762;19;20082;-81
2023/04/25 15:00:20;;;;;;;11.73;4.28;;;;;;;;;;7363630;19;20256;-80